Time,TemperatureF,DewpointF,PressureIn,WindDirection,WindDirectionDegrees,WindSpeedMPH,WindSpeedGustMPH,Humidity,HourlyPrecipIn,Conditions,Clouds,dailyrainin,SoftwareType,DateUTC
2013-06-15 00:04:00,56.5,51.7,30.05,NNE,29,0.0,0.0,84,0.00,,,0.00,Wunderground v.1.15,2013-06-15 04:04:00,
2013-06-15 00:06:00,56.4,51.6,30.05,NNE,29,0.0,0.0,84,0.00,,,0.00,Wunderground v.1.15,2013-06-15 04:06:00,
2013-06-15 00:07:00,56.4,51.6,30.05,NNE,29,0.0,0.0,84,0.00,,,0.00,Wunderground v.1.15,2013-06-15 04:07:00,
2013-06-15 00:14:00,56.2,51.4,30.05,NNE,29,0.0,1.0,84,0.00,,,0.00,Wunderground v.1.15,2013-06-15 04:14:00,
2013-06-15 00:15:00,56.2,51.1,30.05,NNE,29,0.0,4.0,83,0.00,,,0.00,Wunderground v.1.15,2013-06-15 04:15:00,
2013-06-15 00:20:00,56.7,50.6,30.05,East,82,2.0,4.0,80,0.00,,,0.00,Wunderground v.1.15,2013-06-15 04:20:00,
2013-06-15 00:26:00,57.7,50.2,30.06,SE,144,1.0,2.0,76,0.00,,,0.00,Wunderground v.1.15,2013-06-15 04:26:00,
2013-06-15 00:34:00,58.8,50.2,30.05,SE,144,1.0,1.0,73,0.00,,,0.00,Wunderground v.1.15,2013-06-15 04:34:00,
2013-06-15 00:40:00,59.2,50.2,30.05,SSE,155,0.0,2.0,72,0.00,,,0.00,Wunderground v.1.15,2013-06-15 04:40:00,
2013-06-15 00:45:00,59.6,50.2,30.04,SSE,155,1.0,1.0,71,0.00,,,0.00,Wunderground v.1.15,2013-06-15 04:45:00,
2013-06-15 00:50:00,59.8,50.0,30.04,SSE,155,1.0,1.0,70,0.00,,,0.00,Wunderground v.1.15,2013-06-15 04:50:00,
2013-06-15 00:55:00,59.9,50.1,30.04,SSE,155,0.0,0.0,70,0.00,,,0.00,Wunderground v.1.15,2013-06-15 04:55:00,
2013-06-15 01:01:00,60.0,50.2,30.04,SSE,155,0.0,0.0,70,0.00,,,0.00,Wunderground v.1.15,2013-06-15 05:01:00,
2013-06-15 01:07:00,60.0,50.6,30.04,SSE,155,0.0,1.0,71,0.00,,,0.00,Wunderground v.1.15,2013-06-15 05:07:00,
2013-06-15 01:14:00,60.0,51.3,30.04,SSE,159,1.0,1.0,73,0.00,,,0.00,Wunderground v.1.15,2013-06-15 05:14:00,
2013-06-15 01:20:00,59.8,51.5,30.04,SSE,159,0.0,0.0,74,0.00,,,0.00,Wunderground v.1.15,2013-06-15 05:20:00,
2013-06-15 01:25:00,59.7,52.1,30.04,SSE,159,0.0,0.0,76,0.00,,,0.00,Wunderground v.1.15,2013-06-15 05:25:00,
2013-06-15 01:31:00,59.5,52.3,30.04,SSE,159,0.0,0.0,77,0.00,,,0.00,Wunderground v.1.15,2013-06-15 05:31:00,
2013-06-15 01:36:00,59.5,52.6,30.03,SSE,159,0.0,0.0,78,0.00,,,0.00,Wunderground v.1.15,2013-06-15 05:36:00,
2013-06-15 01:41:00,59.4,52.9,30.03,SSE,159,0.0,0.0,79,0.00,,,0.00,Wunderground v.1.15,2013-06-15 05:41:00,
2013-06-15 01:47:00,59.1,52.6,30.04,SSE,159,0.0,0.0,79,0.00,,,0.00,Wunderground v.1.15,2013-06-15 05:47:00,
2013-06-15 01:54:00,59.0,53.2,30.04,SSE,159,0.0,0.0,81,0.00,,,0.00,Wunderground v.1.15,2013-06-15 05:54:00,
2013-06-15 01:59:00,58.8,53.6,30.04,SSE,161,0.0,0.0,83,0.00,,,0.00,Wunderground v.1.15,2013-06-15 05:59:00,
2013-06-15 02:05:00,58.8,54.0,30.04,SSE,167,0.0,4.0,84,0.00,,,0.00,Wunderground v.1.15,2013-06-15 06:05:00,
2013-06-15 02:11:00,58.7,53.9,30.04,SSE,167,0.0,1.0,84,0.00,,,0.00,Wunderground v.1.15,2013-06-15 06:11:00,
2013-06-15 02:16:00,58.6,54.1,30.04,SSE,167,0.0,3.0,85,0.00,,,0.00,Wunderground v.1.15,2013-06-15 06:16:00,
2013-06-15 02:22:00,58.6,54.1,30.04,SSW,195,1.0,9.0,85,0.00,,,0.00,Wunderground v.1.15,2013-06-15 06:22:00,
2013-06-15 02:27:00,58.7,54.2,30.04,SW,214,2.0,9.0,85,0.00,,,0.00,Wunderground v.1.15,2013-06-15 06:27:00,
2013-06-15 02:35:00,58.7,54.2,30.05,SSW,207,1.0,2.0,85,0.00,,,0.00,Wunderground v.1.15,2013-06-15 06:35:00,
2013-06-15 02:41:00,58.7,54.2,30.05,SW,229,1.0,3.0,85,0.00,,,0.00,Wunderground v.1.15,2013-06-15 06:41:00,
2013-06-15 02:47:00,58.7,54.2,30.05,SW,218,1.0,6.0,85,0.00,,,0.00,Wunderground v.1.15,2013-06-15 06:47:00,
2013-06-15 02:54:00,58.7,54.2,30.05,SSW,204,1.0,4.0,85,0.00,,,0.00,Wunderground v.1.15,2013-06-15 06:54:00,
2013-06-15 02:59:00,58.7,54.5,30.05,SW,229,1.0,1.0,86,0.00,,,0.00,Wunderground v.1.15,2013-06-15 06:59:00,
2013-06-15 03:05:00,58.6,54.4,30.05,SW,229,0.0,1.0,86,0.00,,,0.00,Wunderground v.1.15,2013-06-15 07:05:00,
2013-06-15 03:10:00,58.6,54.4,30.05,SW,229,0.0,0.0,86,0.00,,,0.00,Wunderground v.1.15,2013-06-15 07:10:00,
2013-06-15 03:16:00,58.4,54.2,30.05,SW,229,0.0,0.0,86,0.00,,,0.00,Wunderground v.1.15,2013-06-15 07:16:00,
2013-06-15 03:22:00,58.3,54.4,30.05,SSW,192,0.0,5.0,87,0.00,,,0.00,Wunderground v.1.15,2013-06-15 07:22:00,
2013-06-15 03:27:00,58.3,54.4,30.05,SSW,192,1.0,5.0,87,0.00,,,0.00,Wunderground v.1.15,2013-06-15 07:27:00,
2013-06-15 03:34:00,58.2,54.3,30.05,SSW,192,0.0,1.0,87,0.00,,,0.00,Wunderground v.1.15,2013-06-15 07:34:00,
2013-06-15 03:39:00,58.1,54.6,30.05,SSW,192,0.0,0.0,88,0.00,,,0.00,Wunderground v.1.15,2013-06-15 07:39:00,
2013-06-15 03:44:00,58.0,54.5,30.05,SSW,192,0.0,0.0,88,0.00,,,0.00,Wunderground v.1.15,2013-06-15 07:44:00,
2013-06-15 03:50:00,57.9,54.4,30.05,SSW,192,0.0,0.0,88,0.00,,,0.00,Wunderground v.1.15,2013-06-15 07:50:00,
2013-06-15 03:55:00,57.8,54.3,30.05,SSW,192,0.0,0.0,88,0.00,,,0.00,Wunderground v.1.15,2013-06-15 07:55:00,
2013-06-15 04:01:00,57.6,54.4,30.05,SSW,192,0.0,0.0,89,0.00,,,0.00,Wunderground v.1.15,2013-06-15 08:01:00,
2013-06-15 04:06:00,57.4,54.2,30.05,SSW,192,0.0,0.0,89,0.00,,,0.00,Wunderground v.1.15,2013-06-15 08:06:00,
2013-06-15 04:14:00,57.2,54.3,30.05,SSW,192,0.0,0.0,90,0.00,,,0.00,Wunderground v.1.15,2013-06-15 08:14:00,
2013-06-15 04:20:00,57.1,54.5,30.06,SSW,207,0.0,0.0,91,0.00,,,0.00,Wunderground v.1.15,2013-06-15 08:20:00,
2013-06-15 04:25:00,57.1,54.5,30.05,SSW,206,0.0,0.0,91,0.00,,,0.00,Wunderground v.1.15,2013-06-15 08:25:00,
2013-06-15 04:31:00,57.1,54.5,30.05,SSW,206,0.0,0.0,91,0.00,,,0.00,Wunderground v.1.15,2013-06-15 08:31:00,
2013-06-15 04:36:00,57.1,54.5,30.06,SSW,206,0.0,0.0,91,0.00,,,0.00,Wunderground v.1.15,2013-06-15 08:36:00,
2013-06-15 04:42:00,57.0,54.4,30.05,SSW,206,0.0,0.0,91,0.00,,,0.00,Wunderground v.1.15,2013-06-15 08:42:00,
2013-06-15 04:47:00,57.0,54.4,30.05,SSW,206,0.0,0.0,91,0.00,,,0.00,Wunderground v.1.15,2013-06-15 08:47:00,
2013-06-15 04:54:00,56.9,54.6,30.05,SSW,197,0.0,2.0,92,0.00,,,0.00,Wunderground v.1.15,2013-06-15 08:54:00,
2013-06-15 05:00:00,56.9,54.3,30.05,SSW,196,0.0,0.0,91,0.00,,,0.00,Wunderground v.1.15,2013-06-15 09:00:00,
2013-06-15 05:06:00,56.8,54.2,30.04,SSW,196,0.0,0.0,91,0.00,,,0.00,Wunderground v.1.15,2013-06-15 09:06:00,
2013-06-15 05:11:00,56.8,54.5,30.04,SSW,197,0.0,0.0,92,0.00,,,0.00,Wunderground v.1.15,2013-06-15 09:11:00,
2013-06-15 05:17:00,56.7,54.1,30.04,SSW,197,0.0,0.0,91,0.00,,,0.00,Wunderground v.1.15,2013-06-15 09:17:00,
2013-06-15 05:24:00,56.7,54.1,30.04,SSW,196,0.0,0.0,91,0.00,,,0.00,Wunderground v.1.15,2013-06-15 09:24:00,
2013-06-15 05:29:00,56.7,54.4,30.04,SW,218,0.0,0.0,92,0.00,,,0.00,Wunderground v.1.15,2013-06-15 09:29:00,
2013-06-15 05:35:00,56.8,54.5,30.04,WSW,258,0.0,0.0,92,0.00,,,0.00,Wunderground v.1.15,2013-06-15 09:35:00,
2013-06-15 05:41:00,56.8,54.5,30.04,WSW,258,0.0,0.0,92,0.00,,,0.00,Wunderground v.1.15,2013-06-15 09:41:00,
2013-06-15 05:46:00,56.9,54.6,30.04,WSW,258,0.0,0.0,92,0.00,,,0.00,Wunderground v.1.15,2013-06-15 09:46:00,
2013-06-15 05:51:00,57.0,54.7,30.05,WSW,258,0.0,0.0,92,0.00,,,0.00,Wunderground v.1.15,2013-06-15 09:51:00,
2013-06-15 05:56:00,57.0,54.7,30.05,WSW,257,0.0,0.0,92,0.00,,,0.00,Wunderground v.1.15,2013-06-15 09:56:00,
2013-06-15 06:03:00,57.1,54.8,30.06,WSW,257,0.0,0.0,92,0.00,,,0.00,Wunderground v.1.15,2013-06-15 10:03:00,
2013-06-15 06:09:00,57.1,54.8,30.06,WSW,257,0.0,0.0,92,0.00,,,0.00,Wunderground v.1.15,2013-06-15 10:09:00,
2013-06-15 06:14:00,57.2,54.9,30.06,WSW,258,0.0,0.0,92,0.00,,,0.00,Wunderground v.1.15,2013-06-15 10:14:00,
2013-06-15 06:20:00,57.2,54.9,30.06,WSW,257,0.0,0.0,92,0.00,,,0.00,Wunderground v.1.15,2013-06-15 10:20:00,
2013-06-15 06:25:00,57.4,55.1,30.07,WSW,258,0.0,0.0,92,0.00,,,0.00,Wunderground v.1.15,2013-06-15 10:25:00,
2013-06-15 06:31:00,57.6,55.3,30.07,WSW,258,0.0,0.0,92,0.00,,,0.00,Wunderground v.1.15,2013-06-15 10:31:00,
2013-06-15 06:38:00,57.7,55.4,30.07,WSW,257,0.0,0.0,92,0.00,,,0.00,Wunderground v.1.15,2013-06-15 10:38:00,
2013-06-15 06:43:00,57.9,55.6,30.07,WSW,257,0.0,0.0,92,0.00,,,0.00,Wunderground v.1.15,2013-06-15 10:43:00,
2013-06-15 06:48:00,58.1,55.8,30.07,WSW,257,0.0,0.0,92,0.00,,,0.00,Wunderground v.1.15,2013-06-15 10:48:00,
2013-06-15 06:54:00,58.3,55.7,30.07,WSW,258,0.0,0.0,91,0.00,,,0.00,Wunderground v.1.15,2013-06-15 10:54:00,
2013-06-15 06:59:00,58.5,55.9,30.08,WSW,258,0.0,0.0,91,0.00,,,0.00,Wunderground v.1.15,2013-06-15 10:59:00,
2013-06-15 07:04:00,58.8,56.2,30.08,WSW,258,0.0,0.0,91,0.00,,,0.00,Wunderground v.1.15,2013-06-15 11:04:00,
2013-06-15 07:09:00,59.0,56.1,30.08,WSW,258,0.0,0.0,90,0.00,,,0.00,Wunderground v.1.15,2013-06-15 11:09:00,
2013-06-15 07:15:00,59.0,56.1,30.08,WSW,258,0.0,0.0,90,0.00,,,0.00,Wunderground v.1.15,2013-06-15 11:15:00,
2013-06-15 07:20:00,59.0,56.1,30.08,WSW,257,0.0,0.0,90,0.00,,,0.00,Wunderground v.1.15,2013-06-15 11:20:00,
2013-06-15 07:25:00,59.3,56.4,30.08,WSW,258,0.0,0.0,90,0.00,,,0.00,Wunderground v.1.15,2013-06-15 11:25:00,
2013-06-15 07:31:00,59.6,56.7,30.08,WSW,258,0.0,0.0,90,0.00,,,0.00,Wunderground v.1.15,2013-06-15 11:31:00,
2013-06-15 07:36:00,59.8,56.9,30.08,WSW,258,0.0,0.0,90,0.00,,,0.00,Wunderground v.1.15,2013-06-15 11:36:00,
2013-06-15 07:42:00,59.9,56.6,30.08,WSW,258,0.0,0.0,89,0.00,,,0.00,Wunderground v.1.15,2013-06-15 11:42:00,
2013-06-15 07:48:00,60.2,56.9,30.09,WSW,258,0.0,0.0,89,0.00,,,0.00,Wunderground v.1.15,2013-06-15 11:48:00,
2013-06-15 07:54:00,60.5,57.2,30.08,WSW,258,0.0,0.0,89,0.00,,,0.00,Wunderground v.1.15,2013-06-15 11:54:00,
2013-06-15 08:00:00,60.8,57.2,30.08,WSW,258,0.0,0.0,88,0.00,,,0.00,Wunderground v.1.15,2013-06-15 12:00:00,
2013-06-15 08:05:00,61.1,57.2,30.08,WSW,257,0.0,0.0,87,0.00,,,0.00,Wunderground v.1.15,2013-06-15 12:05:00,
2013-06-15 08:10:00,61.3,57.1,30.08,WSW,258,0.0,0.0,86,0.00,,,0.00,Wunderground v.1.15,2013-06-15 12:10:00,
2013-06-15 08:16:00,61.8,57.2,30.08,West,259,0.0,0.0,85,0.00,,,0.00,Wunderground v.1.15,2013-06-15 12:16:00,
2013-06-15 08:22:00,62.3,57.4,30.08,West,259,0.0,0.0,84,0.00,,,0.00,Wunderground v.1.15,2013-06-15 12:22:00,
2013-06-15 08:28:00,62.9,58.0,30.08,West,259,0.0,0.0,84,0.00,,,0.00,Wunderground v.1.15,2013-06-15 12:28:00,
2013-06-15 08:33:00,63.4,57.8,30.08,West,259,0.0,0.0,82,0.00,,,0.00,Wunderground v.1.15,2013-06-15 12:33:00,
2013-06-15 08:39:00,64.1,58.5,30.08,West,259,0.0,0.0,82,0.00,,,0.00,Wunderground v.1.15,2013-06-15 12:39:00,
2013-06-15 08:44:00,64.6,58.6,30.08,West,259,0.0,0.0,81,0.00,,,0.00,Wunderground v.1.15,2013-06-15 12:44:00,
2013-06-15 08:50:00,65.2,58.5,30.07,WSW,250,0.0,0.0,79,0.00,,,0.00,Wunderground v.1.15,2013-06-15 12:50:00,
2013-06-15 08:56:00,65.6,58.9,30.07,WSW,250,0.0,0.0,79,0.00,,,0.00,Wunderground v.1.15,2013-06-15 12:56:00,
2013-06-15 09:01:00,66.1,59.0,30.08,West,266,0.0,0.0,78,0.00,,,0.00,Wunderground v.1.15,2013-06-15 13:01:00,
2013-06-15 09:06:00,66.5,59.4,30.07,North,5,0.0,0.0,78,0.00,,,0.00,Wunderground v.1.15,2013-06-15 13:06:00,
2013-06-15 09:13:00,67.2,59.4,30.07,SW,236,0.0,2.0,76,0.00,,,0.00,Wunderground v.1.15,2013-06-15 13:13:00,
2013-06-15 09:18:00,67.8,59.6,30.07,WNW,290,0.0,2.0,75,0.00,,,0.00,Wunderground v.1.15,2013-06-15 13:18:00,
2013-06-15 09:24:00,68.1,58.3,30.07,West,261,0.0,3.0,71,0.00,,,0.00,Wunderground v.1.15,2013-06-15 13:24:00,
2013-06-15 09:29:00,68.3,58.5,30.07,SW,217,1.0,1.0,71,0.00,,,0.00,Wunderground v.1.15,2013-06-15 13:29:00,
2013-06-15 09:35:00,68.4,59.0,30.07,SW,217,0.0,1.0,72,0.00,,,0.00,Wunderground v.1.15,2013-06-15 13:35:00,
2013-06-15 09:40:00,68.5,59.9,30.07,SW,217,0.0,0.0,74,0.00,,,0.00,Wunderground v.1.15,2013-06-15 13:40:00,
2013-06-15 09:46:00,68.3,58.9,30.07,West,259,0.0,0.0,72,0.00,,,0.00,Wunderground v.1.15,2013-06-15 13:46:00,
2013-06-15 09:55:00,68.5,59.9,30.06,West,259,0.0,0.0,74,0.00,,,0.00,Wunderground v.1.15,2013-06-15 13:55:00,
2013-06-15 10:00:00,68.8,59.0,30.06,SSW,206,1.0,3.0,71,0.00,,,0.00,Wunderground v.1.15,2013-06-15 14:00:00,
2013-06-15 10:05:00,69.1,59.3,30.06,SW,226,1.0,3.0,71,0.00,,,0.00,Wunderground v.1.15,2013-06-15 14:05:00,
2013-06-15 10:10:00,69.6,60.2,30.06,NW,325,1.0,1.0,72,0.00,,,0.00,Wunderground v.1.15,2013-06-15 14:10:00,
2013-06-15 10:16:00,70.1,60.3,30.06,NW,306,1.0,4.0,71,0.00,,,0.00,Wunderground v.1.15,2013-06-15 14:16:00,
2013-06-15 10:21:00,70.1,59.9,30.06,West,276,1.0,5.0,70,0.00,,,0.00,Wunderground v.1.15,2013-06-15 14:21:00,
2013-06-15 10:27:00,70.4,60.9,30.05,West,276,1.0,5.0,72,0.00,,,0.00,Wunderground v.1.15,2013-06-15 14:27:00,
2013-06-15 10:33:00,70.8,61.3,30.05,SSW,194,0.0,1.0,72,0.00,,,0.00,Wunderground v.1.15,2013-06-15 14:33:00,
2013-06-15 10:38:00,71.2,61.7,30.05,WSW,252,0.0,1.0,72,0.00,,,0.00,Wunderground v.1.15,2013-06-15 14:38:00,
2013-06-15 10:43:00,71.5,61.6,30.04,SSW,196,1.0,6.0,71,0.00,,,0.00,Wunderground v.1.15,2013-06-15 14:43:00,
2013-06-15 10:48:00,71.9,61.2,30.04,WSW,238,1.0,6.0,69,0.00,,,0.00,Wunderground v.1.15,2013-06-15 14:48:00,
2013-06-15 10:53:00,72.4,62.1,30.04,WSW,238,1.0,1.0,70,0.00,,,0.00,Wunderground v.1.15,2013-06-15 14:53:00,
2013-06-15 10:58:00,72.9,62.5,30.04,SW,230,1.0,1.0,70,0.00,,,0.00,Wunderground v.1.15,2013-06-15 14:58:00,
2013-06-15 11:03:00,73.0,61.0,30.03,WNW,301,1.0,2.0,66,0.00,,,0.00,Wunderground v.1.15,2013-06-15 15:03:00,
2013-06-15 11:09:00,73.0,61.0,30.03,SSW,204,2.0,2.0,66,0.00,,,0.00,Wunderground v.1.15,2013-06-15 15:09:00,
2013-06-15 11:14:00,73.3,62.9,30.03,SW,232,1.0,3.0,70,0.00,,,0.00,Wunderground v.1.15,2013-06-15 15:14:00,
2013-06-15 11:19:00,73.5,61.9,30.03,SW,227,1.0,1.0,67,0.00,,,0.00,Wunderground v.1.15,2013-06-15 15:19:00,
2013-06-15 11:25:00,73.6,61.5,30.03,SW,236,1.0,1.0,66,0.00,,,0.00,Wunderground v.1.15,2013-06-15 15:25:00,
2013-06-15 11:30:00,73.7,61.2,30.03,SW,233,0.0,1.0,65,0.00,,,0.00,Wunderground v.1.15,2013-06-15 15:30:00,
2013-06-15 11:35:00,73.7,61.6,30.03,WSW,253,1.0,2.0,66,0.00,,,0.00,Wunderground v.1.15,2013-06-15 15:35:00,
2013-06-15 11:41:00,73.9,61.4,30.02,WSW,257,1.0,2.0,65,0.00,,,0.00,Wunderground v.1.15,2013-06-15 15:41:00,
2013-06-15 11:46:00,74.1,61.6,30.02,West,274,1.0,2.0,65,0.00,,,0.00,Wunderground v.1.15,2013-06-15 15:46:00,
2013-06-15 11:51:00,74.5,62.4,30.01,SW,227,0.0,3.0,66,0.00,,,0.00,Wunderground v.1.15,2013-06-15 15:51:00,
2013-06-15 11:57:00,74.9,61.5,30.01,WSW,242,1.0,3.0,63,0.00,,,0.00,Wunderground v.1.15,2013-06-15 15:57:00,
2013-06-15 12:03:00,74.8,62.2,30.01,WNW,283,1.0,4.0,65,0.00,,,0.00,Wunderground v.1.15,2013-06-15 16:03:00,
2013-06-15 12:08:00,74.8,60.9,30.01,SSW,202,2.0,4.0,62,0.00,,,0.00,Wunderground v.1.15,2013-06-15 16:08:00,
2013-06-15 12:13:00,75.0,62.9,30.01,SSW,205,1.0,2.0,66,0.00,,,0.00,Wunderground v.1.15,2013-06-15 16:13:00,
2013-06-15 12:18:00,75.4,63.2,30.01,SW,230,1.0,3.0,66,0.00,,,0.00,Wunderground v.1.15,2013-06-15 16:18:00,
2013-06-15 12:24:00,75.8,63.2,30.01,South,191,1.0,2.0,65,0.00,,,0.00,Wunderground v.1.15,2013-06-15 16:24:00,
2013-06-15 12:29:00,75.9,61.9,30.01,WSW,250,1.0,1.0,62,0.00,,,0.00,Wunderground v.1.15,2013-06-15 16:29:00,
2013-06-15 12:34:00,75.7,62.2,30.01,West,260,1.0,3.0,63,0.00,,,0.00,Wunderground v.1.15,2013-06-15 16:34:00,
2013-06-15 12:40:00,75.9,63.3,30.01,NW,321,0.0,2.0,65,0.00,,,0.00,Wunderground v.1.15,2013-06-15 16:40:00,
2013-06-15 12:45:00,75.8,61.4,30.01,WNW,286,1.0,7.0,61,0.00,,,0.00,Wunderground v.1.15,2013-06-15 16:45:00,
2013-06-15 12:50:00,75.3,62.7,30.01,West,280,2.0,2.0,65,0.00,,,0.00,Wunderground v.1.15,2013-06-15 16:50:00,
2013-06-15 12:56:00,75.2,62.6,30.01,West,279,1.0,4.0,65,0.00,,,0.00,Wunderground v.1.15,2013-06-15 16:56:00,
2013-06-15 13:01:00,75.0,61.5,30.01,West,281,1.0,4.0,63,0.00,,,0.00,Wunderground v.1.15,2013-06-15 17:01:00,
2013-06-15 13:06:00,74.8,62.2,30.01,WNW,284,1.0,6.0,65,0.00,,,0.00,Wunderground v.1.15,2013-06-15 17:06:00,
2013-06-15 13:12:00,74.2,60.8,30.01,WNW,297,3.0,4.0,63,0.00,,,0.00,Wunderground v.1.15,2013-06-15 17:12:00,
2013-06-15 13:18:00,73.8,61.3,30.01,WNW,296,2.0,4.0,65,0.00,,,0.00,Wunderground v.1.15,2013-06-15 17:18:00,
2013-06-15 13:23:00,73.7,62.1,30.01,WNW,296,1.0,2.0,67,0.00,,,0.00,Wunderground v.1.15,2013-06-15 17:23:00,
2013-06-15 13:29:00,73.6,62.0,30.01,WNW,300,1.0,1.0,67,0.00,,,0.00,Wunderground v.1.15,2013-06-15 17:29:00,
2013-06-15 13:35:00,73.5,61.9,30.01,WNW,296,1.0,5.0,67,0.00,,,0.00,Wunderground v.1.15,2013-06-15 17:35:00,
2013-06-15 13:41:00,73.3,62.5,30.01,WNW,294,1.0,1.0,69,0.00,,,0.00,Wunderground v.1.15,2013-06-15 17:41:00,
2013-06-15 13:46:00,73.3,62.1,30.01,WNW,294,1.0,3.0,68,0.00,,,0.00,Wunderground v.1.15,2013-06-15 17:46:00,
2013-06-15 13:51:00,73.3,62.9,30.00,WNW,294,1.0,2.0,70,0.00,,,0.00,Wunderground v.1.15,2013-06-15 17:51:00,
2013-06-15 13:56:00,73.3,62.9,30.00,WNW,294,0.0,2.0,70,0.00,,,0.00,Wunderground v.1.15,2013-06-15 17:56:00,
2013-06-15 14:02:00,73.3,62.5,30.01,WNW,294,0.0,4.0,69,0.00,,,0.00,Wunderground v.1.15,2013-06-15 18:02:00,
2013-06-15 14:08:00,73.2,63.2,30.00,WNW,294,0.0,4.0,71,0.00,,,0.00,Wunderground v.1.15,2013-06-15 18:08:00,
2013-06-15 14:14:00,73.1,62.7,30.01,NW,311,0.0,3.0,70,0.00,,,0.00,Wunderground v.1.15,2013-06-15 18:14:00,
2013-06-15 14:20:00,73.3,63.7,30.01,NW,311,0.0,0.0,72,0.00,,,0.00,Wunderground v.1.15,2013-06-15 18:20:00,
2013-06-15 14:25:00,73.3,63.3,30.01,NW,311,0.0,0.0,71,0.00,,,0.00,Wunderground v.1.15,2013-06-15 18:25:00,
2013-06-15 14:31:00,73.3,62.9,30.01,NW,311,0.0,0.0,70,0.00,,,0.00,Wunderground v.1.15,2013-06-15 18:31:00,
2013-06-15 14:36:00,73.5,63.9,30.01,NW,313,0.0,4.0,72,0.00,,,0.00,Wunderground v.1.15,2013-06-15 18:36:00,
2013-06-15 14:42:00,73.5,63.9,30.01,WNW,295,1.0,1.0,72,0.00,,,0.00,Wunderground v.1.15,2013-06-15 18:42:00,
2013-06-15 14:48:00,73.6,62.0,30.01,WNW,294,1.0,3.0,67,0.00,,,0.00,Wunderground v.1.15,2013-06-15 18:48:00,
2013-06-15 14:53:00,73.7,64.1,30.01,WNW,294,1.0,1.0,72,0.00,,,0.00,Wunderground v.1.15,2013-06-15 18:53:00,
2013-06-15 14:59:00,73.8,62.6,30.01,WNW,286,1.0,2.0,68,0.00,,,0.00,Wunderground v.1.15,2013-06-15 18:59:00,
2013-06-15 15:04:00,73.6,62.8,30.01,WNW,287,1.0,2.0,69,0.00,,,0.00,Wunderground v.1.15,2013-06-15 19:04:00,
2013-06-15 15:09:00,73.4,62.2,30.01,WNW,287,1.0,3.0,68,0.00,,,0.00,Wunderground v.1.15,2013-06-15 19:09:00,
2013-06-15 15:14:00,73.3,64.1,30.01,WNW,287,1.0,3.0,73,0.00,,,0.00,Wunderground v.1.15,2013-06-15 19:14:00,
2013-06-15 15:20:00,73.1,62.7,30.01,WNW,287,0.0,0.0,70,0.00,,,0.00,Wunderground v.1.15,2013-06-15 19:20:00,
2013-06-15 15:26:00,72.8,62.8,30.01,WNW,287,0.0,0.0,71,0.00,,,0.00,Wunderground v.1.15,2013-06-15 19:26:00,
2013-06-15 15:31:00,72.8,63.2,30.01,WNW,287,0.0,0.0,72,0.00,,,0.00,Wunderground v.1.15,2013-06-15 19:31:00,
2013-06-15 15:36:00,72.9,62.9,30.00,WNW,287,0.0,0.0,71,0.00,,,0.00,Wunderground v.1.15,2013-06-15 19:36:00,
2013-06-15 15:41:00,73.2,63.2,30.00,WNW,287,0.0,0.0,71,0.00,,,0.00,Wunderground v.1.15,2013-06-15 19:41:00,
2013-06-15 15:47:00,73.5,63.5,30.00,WNW,287,0.0,0.0,71,0.00,,,0.00,Wunderground v.1.15,2013-06-15 19:47:00,
2013-06-15 15:52:00,73.7,62.1,30.00,WNW,287,0.0,0.0,67,0.00,,,0.00,Wunderground v.1.15,2013-06-15 19:52:00,
2013-06-15 15:58:00,74.0,63.6,30.00,WNW,287,0.0,1.0,70,0.00,,,0.00,Wunderground v.1.15,2013-06-15 19:58:00,
2013-06-15 16:03:00,74.1,64.1,30.00,WNW,287,0.0,0.0,71,0.00,,,0.00,Wunderground v.1.15,2013-06-15 20:03:00,
2013-06-15 16:09:00,74.2,64.6,30.00,WNW,287,0.0,0.0,72,0.00,,,0.00,Wunderground v.1.15,2013-06-15 20:09:00,
2013-06-15 16:14:00,74.3,63.9,29.99,WSW,253,0.0,2.0,70,0.00,,,0.00,Wunderground v.1.15,2013-06-15 20:14:00,
2013-06-15 16:20:00,74.4,63.1,29.99,WSW,253,0.0,0.0,68,0.00,,,0.00,Wunderground v.1.15,2013-06-15 20:20:00,
2013-06-15 16:25:00,74.5,64.1,29.99,WSW,253,0.0,0.0,70,0.00,,,0.00,Wunderground v.1.15,2013-06-15 20:25:00,
2013-06-15 16:31:00,74.5,63.2,29.99,WSW,253,0.0,0.0,68,0.00,,,0.00,Wunderground v.1.15,2013-06-15 20:31:00,
2013-06-15 16:36:00,74.4,63.6,29.99,WSW,253,0.0,0.0,69,0.00,,,0.00,Wunderground v.1.15,2013-06-15 20:36:00,
2013-06-15 16:41:00,74.3,63.9,29.99,WSW,253,0.0,0.0,70,0.00,,,0.00,Wunderground v.1.15,2013-06-15 20:41:00,
2013-06-15 16:46:00,74.2,64.6,29.99,WSW,253,0.0,0.0,72,0.00,,,0.00,Wunderground v.1.15,2013-06-15 20:46:00,
2013-06-15 16:52:00,74.0,64.0,29.99,WSW,253,0.0,0.0,71,0.00,,,0.00,Wunderground v.1.15,2013-06-15 20:52:00,
2013-06-15 16:58:00,73.9,64.3,29.99,WSW,253,0.0,0.0,72,0.00,,,0.00,Wunderground v.1.15,2013-06-15 20:58:00,
2013-06-15 17:04:00,73.9,64.3,29.99,WSW,254,0.0,0.0,72,0.00,,,0.00,Wunderground v.1.15,2013-06-15 21:04:00,
2013-06-15 17:10:00,73.9,64.7,29.99,WSW,254,0.0,0.0,73,0.00,,,0.00,Wunderground v.1.15,2013-06-15 21:10:00,
2013-06-15 17:15:00,73.9,65.1,29.99,WSW,258,0.0,0.0,74,0.00,,,0.00,Wunderground v.1.15,2013-06-15 21:15:00,
2013-06-15 17:20:00,73.6,64.8,29.99,West,261,0.0,0.0,74,0.00,,,0.00,Wunderground v.1.15,2013-06-15 21:20:00,
2013-06-15 17:26:00,73.4,65.0,29.98,West,265,0.0,0.0,75,0.00,,,0.00,Wunderground v.1.15,2013-06-15 21:26:00,
2013-06-15 17:31:00,73.4,65.4,29.98,West,265,0.0,0.0,76,0.00,,,0.00,Wunderground v.1.15,2013-06-15 21:31:00,
2013-06-15 17:38:00,73.7,64.9,29.98,West,265,0.0,0.0,74,0.00,,,0.00,Wunderground v.1.15,2013-06-15 21:38:00,
2013-06-15 17:44:00,73.8,65.0,29.98,West,272,0.0,3.0,74,0.00,,,0.00,Wunderground v.1.15,2013-06-15 21:44:00,
2013-06-15 17:49:00,73.9,65.1,29.97,West,272,0.0,0.0,74,0.00,,,0.00,Wunderground v.1.15,2013-06-15 21:49:00,
2013-06-15 17:55:00,74.0,65.6,29.97,West,272,0.0,0.0,75,0.00,,,0.00,Wunderground v.1.15,2013-06-15 21:55:00,
2013-06-15 18:00:00,74.1,65.7,29.97,West,272,0.0,0.0,75,0.00,,,0.00,Wunderground v.1.15,2013-06-15 22:00:00,
2013-06-15 18:06:00,74.1,65.7,29.97,SSE,150,0.0,2.0,75,0.00,,,0.00,Wunderground v.1.15,2013-06-15 22:06:00,
2013-06-15 18:11:00,74.0,64.8,29.97,ENE,72,0.0,0.0,73,0.00,,,0.00,Wunderground v.1.15,2013-06-15 22:11:00,
2013-06-15 18:17:00,73.8,64.2,29.97,South,184,1.0,4.0,72,0.00,,,0.00,Wunderground v.1.15,2013-06-15 22:17:00,
2013-06-15 18:22:00,73.4,63.8,29.96,WNW,289,2.0,7.0,72,0.00,,,0.00,Wunderground v.1.15,2013-06-15 22:22:00,
2013-06-15 18:28:00,72.6,63.8,29.96,WNW,284,4.0,7.0,74,0.00,,,0.00,Wunderground v.1.15,2013-06-15 22:28:00,
2013-06-15 18:33:00,72.1,63.4,29.96,NW,313,2.0,5.0,74,0.00,,,0.00,Wunderground v.1.15,2013-06-15 22:33:00,
2013-06-15 18:39:00,71.6,63.3,29.96,West,279,3.0,3.0,75,0.00,,,0.00,Wunderground v.1.15,2013-06-15 22:39:00,
2013-06-15 18:44:00,71.3,62.6,29.96,WNW,288,3.0,7.0,74,0.00,,,0.00,Wunderground v.1.15,2013-06-15 22:44:00,
2013-06-15 18:50:00,70.9,61.0,29.96,WNW,288,3.0,5.0,71,0.00,,,0.00,Wunderground v.1.15,2013-06-15 22:50:00,
2013-06-15 18:55:00,70.7,61.6,29.96,West,279,3.0,5.0,73,0.00,,,0.00,Wunderground v.1.15,2013-06-15 22:55:00,
2013-06-15 19:01:00,70.7,61.6,29.96,West,281,4.0,6.0,73,0.00,,,0.00,Wunderground v.1.15,2013-06-15 23:01:00,
2013-06-15 19:06:00,70.7,61.6,29.96,West,280,4.0,6.0,73,0.00,,,0.00,Wunderground v.1.15,2013-06-15 23:06:00,
2013-06-15 19:11:00,70.7,61.6,29.96,West,281,3.0,9.0,73,0.00,,,0.00,Wunderground v.1.15,2013-06-15 23:11:00,
2013-06-15 19:16:00,70.6,61.9,29.96,West,281,3.0,9.0,74,0.00,,,0.00,Wunderground v.1.15,2013-06-15 23:16:00,
2013-06-15 19:22:00,70.3,60.8,29.96,WNW,283,2.0,5.0,72,0.00,,,0.00,Wunderground v.1.15,2013-06-15 23:22:00,
2013-06-15 19:28:00,70.1,61.4,29.96,West,279,3.0,6.0,74,0.00,,,0.00,Wunderground v.1.15,2013-06-15 23:28:00,
2013-06-15 19:33:00,69.9,61.2,29.96,West,279,2.0,3.0,74,0.00,,,0.00,Wunderground v.1.15,2013-06-15 23:33:00,
2013-06-15 19:39:00,69.7,61.4,29.96,West,272,3.0,3.0,75,0.00,,,0.00,Wunderground v.1.15,2013-06-15 23:39:00,
2013-06-15 19:44:00,69.5,61.6,29.96,West,280,3.0,5.0,76,0.00,,,0.00,Wunderground v.1.15,2013-06-15 23:44:00,
2013-06-15 19:50:00,69.4,61.5,29.96,West,280,2.0,3.0,76,0.00,,,0.00,Wunderground v.1.15,2013-06-15 23:50:00,
2013-06-15 19:55:00,69.3,61.8,29.96,WNW,291,2.0,5.0,77,0.00,,,0.00,Wunderground v.1.15,2013-06-15 23:55:00,
2013-06-15 20:01:00,69.2,61.7,29.96,WNW,291,1.0,1.0,77,0.00,,,0.00,Wunderground v.1.15,2013-06-16 00:01:00,
2013-06-15 20:06:00,69.2,62.0,29.96,WNW,291,0.0,3.0,78,0.00,,,0.00,Wunderground v.1.15,2013-06-16 00:06:00,
2013-06-15 20:11:00,69.3,62.1,29.96,WNW,291,1.0,1.0,78,0.00,,,0.00,Wunderground v.1.15,2013-06-16 00:11:00,
2013-06-15 20:17:00,69.3,62.1,29.96,WNW,291,1.0,1.0,78,0.00,,,0.00,Wunderground v.1.15,2013-06-16 00:17:00,
2013-06-15 20:22:00,69.3,62.1,29.96,WNW,291,0.0,1.0,78,0.00,,,0.00,Wunderground v.1.15,2013-06-16 00:22:00,
2013-06-15 20:28:00,69.2,62.0,29.96,WNW,291,1.0,2.0,78,0.00,,,0.00,Wunderground v.1.15,2013-06-16 00:28:00,
2013-06-15 20:34:00,69.2,62.4,29.95,WNW,291,1.0,1.0,79,0.00,,,0.00,Wunderground v.1.15,2013-06-16 00:34:00,
2013-06-15 20:39:00,69.2,62.0,29.95,WNW,291,0.0,0.0,78,0.00,,,0.00,Wunderground v.1.15,2013-06-16 00:39:00,
2013-06-15 20:44:00,69.1,62.3,29.95,WNW,291,0.0,2.0,79,0.00,,,0.00,Wunderground v.1.15,2013-06-16 00:44:00,
2013-06-15 20:50:00,68.9,62.1,29.95,WNW,291,0.0,1.0,79,0.00,,,0.00,Wunderground v.1.15,2013-06-16 00:50:00,
2013-06-15 20:55:00,68.7,61.9,29.95,NNW,328,0.0,2.0,79,0.00,,,0.00,Wunderground v.1.15,2013-06-16 00:55:00,
2013-06-15 21:01:00,68.4,62.0,29.95,South,179,1.0,1.0,80,0.00,,,0.00,Wunderground v.1.15,2013-06-16 01:01:00,
2013-06-15 21:06:00,68.3,61.9,29.95,North,360,0.0,1.0,80,0.00,,,0.00,Wunderground v.1.15,2013-06-16 01:06:00,
2013-06-15 21:12:00,68.0,61.6,29.95,SW,223,0.0,1.0,80,0.00,,,0.00,Wunderground v.1.15,2013-06-16 01:12:00,
2013-06-15 21:18:00,67.8,61.8,29.95,WNW,288,0.0,1.0,81,0.00,,,0.00,Wunderground v.1.15,2013-06-16 01:18:00,
2013-06-15 21:23:00,67.6,61.6,29.94,WNW,289,0.0,0.0,81,0.00,,,0.00,Wunderground v.1.15,2013-06-16 01:23:00,
2013-06-15 21:29:00,67.2,61.5,29.94,WNW,288,0.0,0.0,82,0.00,,,0.00,Wunderground v.1.15,2013-06-16 01:29:00,
2013-06-15 21:34:00,67.0,61.3,29.94,WNW,289,0.0,0.0,82,0.00,,,0.00,Wunderground v.1.15,2013-06-16 01:34:00,
2013-06-15 21:39:00,66.7,61.4,29.93,WNW,288,0.0,0.0,83,0.00,,,0.00,Wunderground v.1.15,2013-06-16 01:39:00,
2013-06-15 21:44:00,66.5,61.5,29.93,WNW,288,0.0,0.0,84,0.00,,,0.00,Wunderground v.1.15,2013-06-16 01:44:00,
2013-06-15 21:50:00,66.2,61.2,29.93,WNW,289,0.0,0.0,84,0.00,,,0.00,Wunderground v.1.15,2013-06-16 01:50:00,
2013-06-15 21:55:00,66.0,61.4,29.93,WNW,289,0.0,0.0,85,0.00,,,0.00,Wunderground v.1.15,2013-06-16 01:55:00,
2013-06-15 22:01:00,65.7,61.4,29.93,WNW,288,0.0,0.0,86,0.00,,,0.00,Wunderground v.1.15,2013-06-16 02:01:00,
2013-06-15 22:06:00,65.4,61.1,29.93,WNW,289,0.0,0.0,86,0.00,,,0.00,Wunderground v.1.15,2013-06-16 02:06:00,
2013-06-15 22:12:00,65.1,61.1,29.93,WNW,289,0.0,0.0,87,0.00,,,0.00,Wunderground v.1.15,2013-06-16 02:12:00,
2013-06-15 22:18:00,64.9,60.9,29.93,WNW,289,0.0,0.0,87,0.00,,,0.00,Wunderground v.1.15,2013-06-16 02:18:00,
2013-06-15 22:23:00,64.8,61.2,29.93,WNW,288,0.0,3.0,88,0.00,,,0.00,Wunderground v.1.15,2013-06-16 02:23:00,
2013-06-15 22:29:00,64.8,61.2,29.93,SW,226,1.0,1.0,88,0.00,,,0.00,Wunderground v.1.15,2013-06-16 02:29:00,
2013-06-15 22:34:00,65.0,61.4,29.93,SSW,211,1.0,5.0,88,0.00,,,0.00,Wunderground v.1.15,2013-06-16 02:34:00,
2013-06-15 22:40:00,65.1,61.5,29.93,SSW,202,1.0,3.0,88,0.00,,,0.00,Wunderground v.1.15,2013-06-16 02:40:00,
2013-06-15 22:45:00,65.3,61.3,29.93,SW,214,1.0,3.0,87,0.00,,,0.00,Wunderground v.1.15,2013-06-16 02:45:00,
2013-06-15 22:51:00,65.4,61.1,29.93,SSW,213,1.0,1.0,86,0.00,,,0.00,Wunderground v.1.15,2013-06-16 02:51:00,
2013-06-15 22:56:00,65.4,61.1,29.93,SW,216,0.0,1.0,86,0.00,,,0.00,Wunderground v.1.15,2013-06-16 02:56:00,
2013-06-15 23:01:00,65.4,61.1,29.92,SW,215,0.0,1.0,86,0.00,,,0.00,Wunderground v.1.15,2013-06-16 03:01:00,
2013-06-15 23:06:00,65.4,61.1,29.92,SW,215,0.0,1.0,86,0.00,,,0.00,Wunderground v.1.15,2013-06-16 03:06:00,
2013-06-15 23:12:00,65.3,61.0,29.91,SSW,213,1.0,2.0,86,0.00,,,0.00,Wunderground v.1.15,2013-06-16 03:12:00,
2013-06-15 23:18:00,65.2,61.2,29.91,SSW,213,1.0,3.0,87,0.00,,,0.00,Wunderground v.1.15,2013-06-16 03:18:00,
2013-06-15 23:23:00,65.2,61.2,29.92,West,260,1.0,3.0,87,0.00,,,0.00,Wunderground v.1.15,2013-06-16 03:23:00,
2013-06-15 23:29:00,65.2,61.2,29.92,WSW,257,1.0,1.0,87,0.00,,,0.00,Wunderground v.1.15,2013-06-16 03:29:00,
2013-06-15 23:35:00,65.1,61.1,29.92,WSW,257,0.0,1.0,87,0.00,,,0.00,Wunderground v.1.15,2013-06-16 03:35:00,
2013-06-15 23:40:00,65.0,61.0,29.92,WSW,257,0.0,0.0,87,0.00,,,0.00,Wunderground v.1.15,2013-06-16 03:40:00,
2013-06-15 23:45:00,64.8,60.8,29.92,SW,233,1.0,4.0,87,0.00,,,0.00,Wunderground v.1.15,2013-06-16 03:45:00,
2013-06-15 23:51:00,64.8,60.8,29.91,SSW,211,2.0,3.0,87,0.00,,,0.00,Wunderground v.1.15,2013-06-16 03:51:00,
2013-06-15 23:56:00,64.8,60.8,29.91,SW,229,2.0,4.0,87,0.00,,,0.00,Wunderground v.1.15,2013-06-16 03:56:00,